sensor_id;sensor_type;location;lat;lon;timestamp;P1;durP1;ratioP1;P2;durP2;ratioP2
46216;SDS011;47258;59.424;13.482;2023-12-07T00:01:39;4.85;;;2.63;;
46216;SDS011;47258;59.424;13.482;2023-12-07T00:04:06;6.10;;;3.07;;
46216;SDS011;47258;59.424;13.482;2023-12-07T00:06:33;6.68;;;3.30;;
46216;SDS011;47258;59.424;13.482;2023-12-07T00:09:00;7.97;;;4.00;;
46216;SDS011;47258;59.424;13.482;2023-12-07T00:11:27;5.57;;;3.20;;
46216;SDS011;47258;59.424;13.482;2023-12-07T00:13:55;9.40;;;3.72;;
46216;SDS011;47258;59.424;13.482;2023-12-07T00:16:22;5.13;;;3.60;;
46216;SDS011;47258;59.424;13.482;2023-12-07T00:18:51;7.97;;;4.15;;
46216;SDS011;47258;59.424;13.482;2023-12-07T00:21:18;6.60;;;3.90;;
46216;SDS011;47258;59.424;13.482;2023-12-07T00:23:45;5.95;;;3.95;;
46216;SDS011;47258;59.424;13.482;2023-12-07T00:26:12;9.18;;;3.45;;
46216;SDS011;47258;59.424;13.482;2023-12-07T00:28:39;5.57;;;3.40;;
46216;SDS011;47258;59.424;13.482;2023-12-07T00:31:06;5.90;;;4.35;;
46216;SDS011;47258;59.424;13.482;2023-12-07T00:33:33;6.20;;;4.38;;
46216;SDS011;47258;59.424;13.482;2023-12-07T00:36:02;5.53;;;3.67;;
46216;SDS011;47258;59.424;13.482;2023-12-07T00:40:57;9.50;;;2.70;;
46216;SDS011;47258;59.424;13.482;2023-12-07T00:43:24;3.63;;;2.97;;
46216;SDS011;47258;59.424;13.482;2023-12-07T00:45:51;4.88;;;4.07;;
46216;SDS011;47258;59.424;13.482;2023-12-07T00:48:18;5.93;;;3.75;;
46216;SDS011;47258;59.424;13.482;2023-12-07T00:50:45;7.57;;;4.35;;
46216;SDS011;47258;59.424;13.482;2023-12-07T00:53:14;5.40;;;3.63;;
46216;SDS011;47258;59.424;13.482;2023-12-07T00:55:40;6.57;;;3.87;;
46216;SDS011;47258;59.424;13.482;2023-12-07T00:58:07;7.15;;;3.22;;
46216;SDS011;47258;59.424;13.482;2023-12-07T01:00:34;4.13;;;3.08;;
46216;SDS011;47258;59.424;13.482;2023-12-07T01:03:02;5.68;;;2.88;;
46216;SDS011;47258;59.424;13.482;2023-12-07T01:05:28;6.35;;;3.97;;
46216;SDS011;47258;59.424;13.482;2023-12-07T01:07:55;4.60;;;3.25;;
46216;SDS011;47258;59.424;13.482;2023-12-07T01:10:24;4.47;;;3.00;;
46216;SDS011;47258;59.424;13.482;2023-12-07T01:12:51;3.47;;;2.40;;
46216;SDS011;47258;59.424;13.482;2023-12-07T01:15:18;3.83;;;2.05;;
46216;SDS011;47258;59.424;13.482;2023-12-07T01:17:45;5.55;;;3.15;;
46216;SDS011;47258;59.424;13.482;2023-12-07T01:20:12;5.40;;;2.85;;
46216;SDS011;47258;59.424;13.482;2023-12-07T01:22:39;4.38;;;2.53;;
46216;SDS011;47258;59.424;13.482;2023-12-07T01:25:06;3.53;;;2.72;;
46216;SDS011;47258;59.424;13.482;2023-12-07T01:27:35;6.15;;;3.17;;
46216;SDS011;47258;59.424;13.482;2023-12-07T01:30:02;4.07;;;2.53;;
46216;SDS011;47258;59.424;13.482;2023-12-07T01:32:29;4.47;;;3.33;;
46216;SDS011;47258;59.424;13.482;2023-12-07T01:34:59;4.57;;;2.60;;
46216;SDS011;47258;59.424;13.482;2023-12-07T01:37:26;4.15;;;2.85;;
46216;SDS011;47258;59.424;13.482;2023-12-07T01:39:54;5.38;;;3.17;;
46216;SDS011;47258;59.424;13.482;2023-12-07T01:42:21;5.15;;;3.42;;
46216;SDS011;47258;59.424;13.482;2023-12-07T01:44:49;4.63;;;2.75;;
46216;SDS011;47258;59.424;13.482;2023-12-07T01:47:16;5.77;;;3.20;;
46216;SDS011;47258;59.424;13.482;2023-12-07T01:49:44;4.25;;;2.53;;
46216;SDS011;47258;59.424;13.482;2023-12-07T01:52:10;4.15;;;2.75;;
46216;SDS011;47258;59.424;13.482;2023-12-07T01:54:38;3.85;;;2.85;;
46216;SDS011;47258;59.424;13.482;2023-12-07T01:57:05;3.83;;;3.45;;
46216;SDS011;47258;59.424;13.482;2023-12-07T01:59:32;3.20;;;2.67;;
46216;SDS011;47258;59.424;13.482;2023-12-07T02:02:01;2.65;;;2.45;;
46216;SDS011;47258;59.424;13.482;2023-12-07T02:04:28;3.75;;;2.20;;
46216;SDS011;47258;59.424;13.482;2023-12-07T02:06:56;3.22;;;2.33;;
46216;SDS011;47258;59.424;13.482;2023-12-07T02:09:24;8.38;;;3.47;;
46216;SDS011;47258;59.424;13.482;2023-12-07T02:11:51;5.10;;;2.92;;
46216;SDS011;47258;59.424;13.482;2023-12-07T02:14:19;6.07;;;2.72;;
46216;SDS011;47258;59.424;13.482;2023-12-07T02:16:47;6.80;;;2.85;;
46216;SDS011;47258;59.424;13.482;2023-12-07T02:19:23;4.13;;;2.60;;
46216;SDS011;47258;59.424;13.482;2023-12-07T02:22:07;3.67;;;2.28;;
46216;SDS011;47258;59.424;13.482;2023-12-07T02:24:42;2.42;;;2.10;;
46216;SDS011;47258;59.424;13.482;2023-12-07T02:27:18;6.00;;;2.70;;
46216;SDS011;47258;59.424;13.482;2023-12-07T02:30:00;3.97;;;2.00;;
46216;SDS011;47258;59.424;13.482;2023-12-07T02:32:27;4.90;;;2.95;;
46216;SDS011;47258;59.424;13.482;2023-12-07T02:34:54;6.30;;;2.60;;
46216;SDS011;47258;59.424;13.482;2023-12-07T02:37:22;3.92;;;3.05;;
46216;SDS011;47258;59.424;13.482;2023-12-07T02:39:53;7.55;;;3.10;;
46216;SDS011;47258;59.424;13.482;2023-12-07T02:42:23;5.90;;;3.13;;
46216;SDS011;47258;59.424;13.482;2023-12-07T02:44:52;4.35;;;2.88;;
46216;SDS011;47258;59.424;13.482;2023-12-07T02:47:20;8.63;;;3.70;;
46216;SDS011;47258;59.424;13.482;2023-12-07T02:49:47;3.97;;;2.63;;
46216;SDS011;47258;59.424;13.482;2023-12-07T02:52:14;3.47;;;2.35;;
46216;SDS011;47258;59.424;13.482;2023-12-07T02:54:41;5.45;;;3.10;;
46216;SDS011;47258;59.424;13.482;2023-12-07T02:57:07;3.63;;;2.40;;
46216;SDS011;47258;59.424;13.482;2023-12-07T02:59:36;4.53;;;2.80;;
46216;SDS011;47258;59.424;13.482;2023-12-07T03:02:04;5.40;;;2.90;;
46216;SDS011;47258;59.424;13.482;2023-12-07T03:04:31;7.05;;;3.13;;
46216;SDS011;47258;59.424;13.482;2023-12-07T03:07:01;5.40;;;3.05;;
46216;SDS011;47258;59.424;13.482;2023-12-07T03:09:27;5.63;;;3.42;;
46216;SDS011;47258;59.424;13.482;2023-12-07T03:11:54;7.78;;;3.47;;
46216;SDS011;47258;59.424;13.482;2023-12-07T03:14:21;5.45;;;2.78;;
46216;SDS011;47258;59.424;13.482;2023-12-07T03:16:50;6.47;;;3.30;;
46216;SDS011;47258;59.424;13.482;2023-12-07T03:19:17;7.32;;;2.88;;
46216;SDS011;47258;59.424;13.482;2023-12-07T03:21:44;5.63;;;3.13;;
46216;SDS011;47258;59.424;13.482;2023-12-07T03:24:11;5.28;;;2.65;;
46216;SDS011;47258;59.424;13.482;2023-12-07T03:26:38;6.45;;;2.60;;
46216;SDS011;47258;59.424;13.482;2023-12-07T03:29:05;3.28;;;2.25;;
46216;SDS011;47258;59.424;13.482;2023-12-07T03:31:33;3.58;;;2.67;;
46216;SDS011;47258;59.424;13.482;2023-12-07T03:34:01;5.43;;;3.05;;
46216;SDS011;47258;59.424;13.482;2023-12-07T03:36:30;5.18;;;2.78;;
46216;SDS011;47258;59.424;13.482;2023-12-07T03:38:57;3.33;;;2.80;;
46216;SDS011;47258;59.424;13.482;2023-12-07T03:41:24;5.88;;;2.85;;
46216;SDS011;47258;59.424;13.482;2023-12-07T03:43:51;7.07;;;2.50;;
46216;SDS011;47258;59.424;13.482;2023-12-07T03:46:18;5.03;;;2.45;;
46216;SDS011;47258;59.424;13.482;2023-12-07T03:48:44;5.90;;;2.42;;
46216;SDS011;47258;59.424;13.482;2023-12-07T03:51:16;4.28;;;3.38;;
46216;SDS011;47258;59.424;13.482;2023-12-07T03:53:43;7.57;;;3.40;;
46216;SDS011;47258;59.424;13.482;2023-12-07T03:56:10;5.18;;;2.55;;
46216;SDS011;47258;59.424;13.482;2023-12-07T03:58:37;6.45;;;2.70;;
46216;SDS011;47258;59.424;13.482;2023-12-07T04:01:04;4.05;;;2.90;;
46216;SDS011;47258;59.424;13.482;2023-12-07T04:03:31;4.32;;;2.53;;
46216;SDS011;47258;59.424;13.482;2023-12-07T04:05:58;8.85;;;2.92;;
46216;SDS011;47258;59.424;13.482;2023-12-07T04:08:26;3.05;;;2.05;;
46216;SDS011;47258;59.424;13.482;2023-12-07T04:10:53;2.40;;;2.08;;
46216;SDS011;47258;59.424;13.482;2023-12-07T04:13:20;3.90;;;2.00;;
46216;SDS011;47258;59.424;13.482;2023-12-07T04:15:47;3.22;;;2.00;;
46216;SDS011;47258;59.424;13.482;2023-12-07T04:18:15;2.33;;;1.80;;
46216;SDS011;47258;59.424;13.482;2023-12-07T04:20:42;4.65;;;1.48;;
46216;SDS011;47258;59.424;13.482;2023-12-07T04:23:09;1.55;;;1.45;;
46216;SDS011;47258;59.424;13.482;2023-12-07T04:25:38;4.90;;;1.65;;
46216;SDS011;47258;59.424;13.482;2023-12-07T04:28:05;1.27;;;1.13;;
46216;SDS011;47258;59.424;13.482;2023-12-07T04:30:32;2.83;;;2.22;;
46216;SDS011;47258;59.424;13.482;2023-12-07T04:32:59;1.85;;;1.48;;
46216;SDS011;47258;59.424;13.482;2023-12-07T04:35:26;2.33;;;2.13;;
46216;SDS011;47258;59.424;13.482;2023-12-07T04:37:54;1.95;;;1.05;;
46216;SDS011;47258;59.424;13.482;2023-12-07T04:40:21;2.78;;;2.03;;
46216;SDS011;47258;59.424;13.482;2023-12-07T04:42:50;4.57;;;1.88;;
46216;SDS011;47258;59.424;13.482;2023-12-07T04:45:18;1.03;;;1.03;;
46216;SDS011;47258;59.424;13.482;2023-12-07T04:47:45;1.55;;;1.40;;
46216;SDS011;47258;59.424;13.482;2023-12-07T04:50:12;1.42;;;1.35;;
46216;SDS011;47258;59.424;13.482;2023-12-07T04:52:39;1.38;;;1.20;;
46216;SDS011;47258;59.424;13.482;2023-12-07T04:55:06;1.98;;;1.50;;
46216;SDS011;47258;59.424;13.482;2023-12-07T04:57:33;2.35;;;1.50;;
46216;SDS011;47258;59.424;13.482;2023-12-07T05:00:02;1.33;;;1.23;;
46216;SDS011;47258;59.424;13.482;2023-12-07T05:02:31;3.88;;;2.15;;
46216;SDS011;47258;59.424;13.482;2023-12-07T05:04:58;2.38;;;1.40;;
46216;SDS011;47258;59.424;13.482;2023-12-07T05:07:25;3.03;;;1.33;;
46216;SDS011;47258;59.424;13.482;2023-12-07T05:09:52;1.27;;;1.17;;
46216;SDS011;47258;59.424;13.482;2023-12-07T05:12:19;1.40;;;1.20;;
46216;SDS011;47258;59.424;13.482;2023-12-07T05:14:46;2.08;;;1.35;;
46216;SDS011;47258;59.424;13.482;2023-12-07T05:17:14;1.30;;;1.20;;
46216;SDS011;47258;59.424;13.482;2023-12-07T05:19:41;0.83;;;0.83;;
46216;SDS011;47258;59.424;13.482;2023-12-07T05:22:10;1.05;;;1.00;;
46216;SDS011;47258;59.424;13.482;2023-12-07T05:24:37;2.05;;;1.63;;
46216;SDS011;47258;59.424;13.482;2023-12-07T05:27:05;1.63;;;1.52;;
46216;SDS011;47258;59.424;13.482;2023-12-07T05:29:32;2.10;;;2.00;;
46216;SDS011;47258;59.424;13.482;2023-12-07T05:32:02;2.78;;;1.70;;
46216;SDS011;47258;59.424;13.482;2023-12-07T05:34:31;1.85;;;1.27;;
46216;SDS011;47258;59.424;13.482;2023-12-07T05:36:58;1.85;;;1.15;;
46216;SDS011;47258;59.424;13.482;2023-12-07T05:39:25;1.20;;;1.10;;
46216;SDS011;47258;59.424;13.482;2023-12-07T05:41:52;1.77;;;1.35;;
46216;SDS011;47258;59.424;13.482;2023-12-07T05:44:20;1.58;;;1.38;;
46216;SDS011;47258;59.424;13.482;2023-12-07T05:46:48;1.85;;;1.38;;
46216;SDS011;47258;59.424;13.482;2023-12-07T05:49:15;2.13;;;1.55;;
46216;SDS011;47258;59.424;13.482;2023-12-07T05:51:43;1.75;;;1.35;;
46216;SDS011;47258;59.424;13.482;2023-12-07T05:54:10;5.15;;;4.43;;
46216;SDS011;47258;59.424;13.482;2023-12-07T05:56:37;1.75;;;1.15;;
46216;SDS011;47258;59.424;13.482;2023-12-07T05:59:05;1.13;;;1.02;;
46216;SDS011;47258;59.424;13.482;2023-12-07T06:01:32;2.58;;;1.80;;
46216;SDS011;47258;59.424;13.482;2023-12-07T06:03:59;1.88;;;1.20;;
46216;SDS011;47258;59.424;13.482;2023-12-07T06:06:26;1.90;;;1.35;;
46216;SDS011;47258;59.424;13.482;2023-12-07T06:08:54;5.32;;;1.45;;
46216;SDS011;47258;59.424;13.482;2023-12-07T06:11:21;2.38;;;1.65;;
46216;SDS011;47258;59.424;13.482;2023-12-07T06:13:48;1.20;;;1.20;;
46216;SDS011;47258;59.424;13.482;2023-12-07T06:16:15;1.88;;;1.08;;
46216;SDS011;47258;59.424;13.482;2023-12-07T06:18:43;1.58;;;1.33;;
46216;SDS011;47258;59.424;13.482;2023-12-07T06:21:11;2.63;;;1.10;;
46216;SDS011;47258;59.424;13.482;2023-12-07T06:23:40;3.40;;;1.42;;
46216;SDS011;47258;59.424;13.482;2023-12-07T06:26:08;1.77;;;1.10;;
46216;SDS011;47258;59.424;13.482;2023-12-07T06:28:35;8.85;;;1.48;;
46216;SDS011;47258;59.424;13.482;2023-12-07T06:31:05;2.08;;;1.30;;
46216;SDS011;47258;59.424;13.482;2023-12-07T06:33:33;1.13;;;1.02;;
46216;SDS011;47258;59.424;13.482;2023-12-07T06:36:00;2.88;;;1.20;;
46216;SDS011;47258;59.424;13.482;2023-12-07T06:38:29;3.00;;;1.30;;
46216;SDS011;47258;59.424;13.482;2023-12-07T06:40:56;2.35;;;1.25;;
46216;SDS011;47258;59.424;13.482;2023-12-07T06:43:29;1.77;;;0.98;;
46216;SDS011;47258;59.424;13.482;2023-12-07T06:45:56;1.58;;;1.05;;
46216;SDS011;47258;59.424;13.482;2023-12-07T06:48:23;1.65;;;1.17;;
46216;SDS011;47258;59.424;13.482;2023-12-07T06:50:50;1.45;;;0.98;;
46216;SDS011;47258;59.424;13.482;2023-12-07T06:53:17;1.42;;;0.90;;
46216;SDS011;47258;59.424;13.482;2023-12-07T06:55:44;1.95;;;0.88;;
46216;SDS011;47258;59.424;13.482;2023-12-07T06:58:11;1.27;;;1.17;;
46216;SDS011;47258;59.424;13.482;2023-12-07T07:00:42;1.15;;;0.90;;
46216;SDS011;47258;59.424;13.482;2023-12-07T07:03:09;1.20;;;1.10;;
46216;SDS011;47258;59.424;13.482;2023-12-07T07:05:36;1.30;;;1.20;;
46216;SDS011;47258;59.424;13.482;2023-12-07T07:08:03;1.00;;;0.88;;
46216;SDS011;47258;59.424;13.482;2023-12-07T07:10:31;1.50;;;1.13;;
46216;SDS011;47258;59.424;13.482;2023-12-07T07:12:59;3.30;;;1.10;;
46216;SDS011;47258;59.424;13.482;2023-12-07T07:15:28;0.75;;;0.75;;
46216;SDS011;47258;59.424;13.482;2023-12-07T07:20:25;0.95;;;0.90;;
46216;SDS011;47258;59.424;13.482;2023-12-07T07:22:52;1.52;;;1.02;;
46216;SDS011;47258;59.424;13.482;2023-12-07T07:25:19;3.35;;;1.00;;
46216;SDS011;47258;59.424;13.482;2023-12-07T07:27:47;1.65;;;1.13;;
46216;SDS011;47258;59.424;13.482;2023-12-07T07:30:14;0.95;;;0.95;;
46216;SDS011;47258;59.424;13.482;2023-12-07T07:32:41;1.77;;;1.17;;
46216;SDS011;47258;59.424;13.482;2023-12-07T07:35:09;1.52;;;1.10;;
46216;SDS011;47258;59.424;13.482;2023-12-07T07:37:37;1.10;;;1.00;;
46216;SDS011;47258;59.424;13.482;2023-12-07T07:40:06;1.05;;;0.95;;
46216;SDS011;47258;59.424;13.482;2023-12-07T07:42:37;1.50;;;0.93;;
46216;SDS011;47258;59.424;13.482;2023-12-07T07:45:05;1.10;;;0.77;;
46216;SDS011;47258;59.424;13.482;2023-12-07T07:47:33;0.75;;;0.75;;
46216;SDS011;47258;59.424;13.482;2023-12-07T07:50:00;0.70;;;0.68;;
46216;SDS011;47258;59.424;13.482;2023-12-07T07:52:31;1.35;;;1.00;;
46216;SDS011;47258;59.424;13.482;2023-12-07T07:54:59;1.65;;;0.93;;
46216;SDS011;47258;59.424;13.482;2023-12-07T07:57:26;5.47;;;0.88;;
46216;SDS011;47258;59.424;13.482;2023-12-07T07:59:53;4.32;;;1.00;;
46216;SDS011;47258;59.424;13.482;2023-12-07T08:02:20;0.80;;;0.80;;
46216;SDS011;47258;59.424;13.482;2023-12-07T08:04:47;1.88;;;1.25;;
46216;SDS011;47258;59.424;13.482;2023-12-07T08:07:14;1.33;;;0.80;;
46216;SDS011;47258;59.424;13.482;2023-12-07T08:09:42;1.00;;;0.85;;
46216;SDS011;47258;59.424;13.482;2023-12-07T08:12:10;1.17;;;0.80;;
46216;SDS011;47258;59.424;13.482;2023-12-07T08:14:37;1.77;;;1.67;;
46216;SDS011;47258;59.424;13.482;2023-12-07T08:17:03;1.00;;;1.00;;
46216;SDS011;47258;59.424;13.482;2023-12-07T08:19:30;0.90;;;0.90;;
46216;SDS011;47258;59.424;13.482;2023-12-07T08:21:57;1.02;;;0.98;;
46216;SDS011;47258;59.424;13.482;2023-12-07T08:24:24;0.73;;;0.73;;
46216;SDS011;47258;59.424;13.482;2023-12-07T08:26:53;1.13;;;1.02;;
46216;SDS011;47258;59.424;13.482;2023-12-07T08:29:20;1.23;;;0.85;;
46216;SDS011;47258;59.424;13.482;2023-12-07T08:31:46;1.30;;;1.20;;
46216;SDS011;47258;59.424;13.482;2023-12-07T08:34:13;2.00;;;0.90;;
46216;SDS011;47258;59.424;13.482;2023-12-07T08:36:40;1.88;;;1.30;;
46216;SDS011;47258;59.424;13.482;2023-12-07T08:39:07;1.77;;;0.93;;
46216;SDS011;47258;59.424;13.482;2023-12-07T08:41:35;1.30;;;1.08;;
46216;SDS011;47258;59.424;13.482;2023-12-07T08:44:04;2.00;;;1.17;;
46216;SDS011;47258;59.424;13.482;2023-12-07T08:46:31;1.00;;;1.00;;
46216;SDS011;47258;59.424;13.482;2023-12-07T08:48:58;1.30;;;1.20;;
46216;SDS011;47258;59.424;13.482;2023-12-07T08:51:25;0.95;;;0.82;;
46216;SDS011;47258;59.424;13.482;2023-12-07T08:53:52;1.83;;;1.15;;
46216;SDS011;47258;59.424;13.482;2023-12-07T08:56:21;0.88;;;0.88;;
46216;SDS011;47258;59.424;13.482;2023-12-07T08:58:50;1.30;;;1.20;;
46216;SDS011;47258;59.424;13.482;2023-12-07T09:01:18;1.02;;;0.93;;
46216;SDS011;47258;59.424;13.482;2023-12-07T09:03:45;0.90;;;0.90;;
46216;SDS011;47258;59.424;13.482;2023-12-07T09:06:12;1.73;;;1.13;;
46216;SDS011;47258;59.424;13.482;2023-12-07T09:08:39;0.95;;;0.90;;
46216;SDS011;47258;59.424;13.482;2023-12-07T09:11:06;1.77;;;1.67;;
46216;SDS011;47258;59.424;13.482;2023-12-07T09:13:33;1.33;;;1.23;;
46216;SDS011;47258;59.424;13.482;2023-12-07T09:16:01;1.73;;;1.38;;
46216;SDS011;47258;59.424;13.482;2023-12-07T09:18:31;1.27;;;0.95;;
46216;SDS011;47258;59.424;13.482;2023-12-07T09:21:00;1.63;;;1.30;;
46216;SDS011;47258;59.424;13.482;2023-12-07T09:23:29;1.75;;;0.85;;
46216;SDS011;47258;59.424;13.482;2023-12-07T09:25:57;2.50;;;2.28;;
46216;SDS011;47258;59.424;13.482;2023-12-07T09:28:24;1.92;;;1.45;;
46216;SDS011;47258;59.424;13.482;2023-12-07T09:30:51;1.25;;;1.15;;
46216;SDS011;47258;59.424;13.482;2023-12-07T09:33:18;1.20;;;1.10;;
46216;SDS011;47258;59.424;13.482;2023-12-07T09:35:46;1.52;;;1.25;;
46216;SDS011;47258;59.424;13.482;2023-12-07T09:38:14;0.88;;;0.88;;
46216;SDS011;47258;59.424;13.482;2023-12-07T09:40:42;1.17;;;1.17;;
46216;SDS011;47258;59.424;13.482;2023-12-07T09:43:09;1.67;;;1.10;;
46216;SDS011;47258;59.424;13.482;2023-12-07T09:45:37;0.93;;;0.90;;
46216;SDS011;47258;59.424;13.482;2023-12-07T09:48:04;1.13;;;0.95;;
46216;SDS011;47258;59.424;13.482;2023-12-07T09:50:33;2.10;;;1.10;;
46216;SDS011;47258;59.424;13.482;2023-12-07T09:53:02;0.98;;;0.70;;
46216;SDS011;47258;59.424;13.482;2023-12-07T09:55:29;0.93;;;0.93;;
46216;SDS011;47258;59.424;13.482;2023-12-07T09:57:57;0.80;;;0.80;;
46216;SDS011;47258;59.424;13.482;2023-12-07T10:00:24;1.27;;;1.10;;
46216;SDS011;47258;59.424;13.482;2023-12-07T10:02:51;1.02;;;1.00;;
46216;SDS011;47258;59.424;13.482;2023-12-07T10:05:18;1.40;;;0.93;;
46216;SDS011;47258;59.424;13.482;2023-12-07T10:07:45;1.05;;;1.00;;
46216;SDS011;47258;59.424;13.482;2023-12-07T10:10:15;0.60;;;0.60;;
46216;SDS011;47258;59.424;13.482;2023-12-07T10:12:44;1.20;;;1.10;;
46216;SDS011;47258;59.424;13.482;2023-12-07T10:15:13;1.23;;;1.15;;
46216;SDS011;47258;59.424;13.482;2023-12-07T10:17:43;2.42;;;1.17;;
46216;SDS011;47258;59.424;13.482;2023-12-07T10:20:13;0.68;;;0.68;;
46216;SDS011;47258;59.424;13.482;2023-12-07T10:22:43;1.25;;;1.13;;
46216;SDS011;47258;59.424;13.482;2023-12-07T10:25:11;1.25;;;1.02;;
46216;SDS011;47258;59.424;13.482;2023-12-07T10:27:41;1.00;;;1.00;;
46216;SDS011;47258;59.424;13.482;2023-12-07T10:30:09;3.65;;;1.45;;
46216;SDS011;47258;59.424;13.482;2023-12-07T10:32:37;2.97;;;1.25;;
46216;SDS011;47258;59.424;13.482;2023-12-07T10:35:08;1.10;;;1.00;;
46216;SDS011;47258;59.424;13.482;2023-12-07T10:37:35;1.98;;;1.30;;
46216;SDS011;47258;59.424;13.482;2023-12-07T10:40:03;1.85;;;1.20;;
46216;SDS011;47258;59.424;13.482;2023-12-07T10:42:32;1.33;;;1.23;;
46216;SDS011;47258;59.424;13.482;2023-12-07T10:45:07;1.25;;;1.15;;
46216;SDS011;47258;59.424;13.482;2023-12-07T10:47:35;1.92;;;1.13;;
46216;SDS011;47258;59.424;13.482;2023-12-07T10:50:05;1.35;;;1.25;;
46216;SDS011;47258;59.424;13.482;2023-12-07T10:52:37;1.42;;;0.93;;
46216;SDS011;47258;59.424;13.482;2023-12-07T10:55:20;2.40;;;1.08;;
46216;SDS011;47258;59.424;13.482;2023-12-07T10:57:51;0.70;;;0.70;;
46216;SDS011;47258;59.424;13.482;2023-12-07T11:00:20;2.20;;;1.38;;
46216;SDS011;47258;59.424;13.482;2023-12-07T11:02:50;2.05;;;1.38;;
46216;SDS011;47258;59.424;13.482;2023-12-07T11:05:18;2.53;;;1.20;;
46216;SDS011;47258;59.424;13.482;2023-12-07T11:07:48;1.10;;;1.00;;
46216;SDS011;47258;59.424;13.482;2023-12-07T11:10:20;1.52;;;1.08;;
46216;SDS011;47258;59.424;13.482;2023-12-07T11:12:54;2.03;;;1.92;;
46216;SDS011;47258;59.424;13.482;2023-12-07T11:15:27;0.95;;;0.93;;
46216;SDS011;47258;59.424;13.482;2023-12-07T11:17:55;1.27;;;1.13;;
46216;SDS011;47258;59.424;13.482;2023-12-07T11:20:31;1.02;;;0.93;;
46216;SDS011;47258;59.424;13.482;2023-12-07T11:23:05;1.15;;;1.05;;
46216;SDS011;47258;59.424;13.482;2023-12-07T11:25:33;4.60;;;1.05;;
46216;SDS011;47258;59.424;13.482;2023-12-07T11:28:00;1.88;;;1.50;;
46216;SDS011;47258;59.424;13.482;2023-12-07T11:30:30;1.25;;;1.08;;
46216;SDS011;47258;59.424;13.482;2023-12-07T11:32:58;1.10;;;1.10;;
46216;SDS011;47258;59.424;13.482;2023-12-07T11:35:26;2.85;;;1.63;;
46216;SDS011;47258;59.424;13.482;2023-12-07T11:38:02;1.85;;;1.33;;
46216;SDS011;47258;59.424;13.482;2023-12-07T11:40:31;2.10;;;1.25;;
46216;SDS011;47258;59.424;13.482;2023-12-07T11:48:09;2.25;;;1.23;;
46216;SDS011;47258;59.424;13.482;2023-12-07T11:50:36;1.92;;;1.33;;
46216;SDS011;47258;59.424;13.482;2023-12-07T11:53:21;1.10;;;0.95;;
46216;SDS011;47258;59.424;13.482;2023-12-07T11:55:49;1.10;;;1.00;;
46216;SDS011;47258;59.424;13.482;2023-12-07T11:58:16;1.40;;;1.33;;
46216;SDS011;47258;59.424;13.482;2023-12-07T12:00:45;1.33;;;1.10;;
46216;SDS011;47258;59.424;13.482;2023-12-07T12:03:12;1.85;;;1.13;;
46216;SDS011;47258;59.424;13.482;2023-12-07T12:05:42;1.38;;;1.23;;
46216;SDS011;47258;59.424;13.482;2023-12-07T12:08:10;2.95;;;1.25;;
46216;SDS011;47258;59.424;13.482;2023-12-07T12:10:37;1.48;;;1.23;;
46216;SDS011;47258;59.424;13.482;2023-12-07T12:13:04;1.17;;;1.02;;
46216;SDS011;47258;59.424;13.482;2023-12-07T12:15:32;1.20;;;1.10;;
46216;SDS011;47258;59.424;13.482;2023-12-07T12:18:00;2.65;;;1.52;;
46216;SDS011;47258;59.424;13.482;2023-12-07T12:20:27;1.40;;;1.30;;
46216;SDS011;47258;59.424;13.482;2023-12-07T12:22:54;0.75;;;0.75;;
46216;SDS011;47258;59.424;13.482;2023-12-07T12:25:21;1.20;;;1.10;;
46216;SDS011;47258;59.424;13.482;2023-12-07T12:27:52;1.08;;;1.08;;
46216;SDS011;47258;59.424;13.482;2023-12-07T12:30:20;1.90;;;1.50;;
46216;SDS011;47258;59.424;13.482;2023-12-07T12:32:48;2.13;;;1.33;;
46216;SDS011;47258;59.424;13.482;2023-12-07T12:35:17;1.15;;;1.08;;
46216;SDS011;47258;59.424;13.482;2023-12-07T12:37:45;0.98;;;0.98;;
46216;SDS011;47258;59.424;13.482;2023-12-07T12:40:14;1.65;;;1.50;;
46216;SDS011;47258;59.424;13.482;2023-12-07T12:42:43;1.80;;;1.17;;
46216;SDS011;47258;59.424;13.482;2023-12-07T12:45:11;1.35;;;1.17;;
46216;SDS011;47258;59.424;13.482;2023-12-07T12:47:39;1.23;;;1.13;;
46216;SDS011;47258;59.424;13.482;2023-12-07T12:50:09;1.40;;;1.20;;
46216;SDS011;47258;59.424;13.482;2023-12-07T12:52:38;2.42;;;1.58;;
46216;SDS011;47258;59.424;13.482;2023-12-07T12:55:07;1.65;;;1.55;;
46216;SDS011;47258;59.424;13.482;2023-12-07T12:57:36;1.83;;;1.33;;
46216;SDS011;47258;59.424;13.482;2023-12-07T13:00:05;1.33;;;1.20;;
46216;SDS011;47258;59.424;13.482;2023-12-07T13:02:33;1.80;;;1.58;;
46216;SDS011;47258;59.424;13.482;2023-12-07T13:05:00;1.30;;;1.20;;
46216;SDS011;47258;59.424;13.482;2023-12-07T13:07:28;2.42;;;1.50;;
46216;SDS011;47258;59.424;13.482;2023-12-07T13:09:56;1.70;;;1.40;;
46216;SDS011;47258;59.424;13.482;2023-12-07T13:12:23;2.03;;;1.20;;
46216;SDS011;47258;59.424;13.482;2023-12-07T13:17:19;3.65;;;1.65;;
46216;SDS011;47258;59.424;13.482;2023-12-07T13:19:49;1.25;;;1.05;;
46216;SDS011;47258;59.424;13.482;2023-12-07T13:22:16;3.22;;;1.80;;
46216;SDS011;47258;59.424;13.482;2023-12-07T13:24:45;1.33;;;1.15;;
46216;SDS011;47258;59.424;13.482;2023-12-07T13:27:16;2.22;;;1.20;;
46216;SDS011;47258;59.424;13.482;2023-12-07T13:29:43;2.50;;;1.20;;
46216;SDS011;47258;59.424;13.482;2023-12-07T13:32:10;2.50;;;1.35;;
46216;SDS011;47258;59.424;13.482;2023-12-07T13:34:37;1.90;;;1.73;;
46216;SDS011;47258;59.424;13.482;2023-12-07T13:37:05;2.85;;;2.28;;
46216;SDS011;47258;59.424;13.482;2023-12-07T13:39:32;1.83;;;1.48;;
46216;SDS011;47258;59.424;13.482;2023-12-07T13:41:59;1.27;;;1.23;;
46216;SDS011;47258;59.424;13.482;2023-12-07T13:44:27;1.63;;;1.52;;
46216;SDS011;47258;59.424;13.482;2023-12-07T13:46:57;1.50;;;1.30;;
46216;SDS011;47258;59.424;13.482;2023-12-07T13:49:25;1.45;;;1.35;;
46216;SDS011;47258;59.424;13.482;2023-12-07T13:51:51;3.38;;;1.80;;
46216;SDS011;47258;59.424;13.482;2023-12-07T13:54:18;1.35;;;1.25;;
46216;SDS011;47258;59.424;13.482;2023-12-07T13:56:47;1.67;;;1.52;;
46216;SDS011;47258;59.424;13.482;2023-12-07T13:59:14;3.45;;;1.42;;
46216;SDS011;47258;59.424;13.482;2023-12-07T14:01:42;1.63;;;1.20;;
46216;SDS011;47258;59.424;13.482;2023-12-07T14:04:09;4.18;;;1.80;;
46216;SDS011;47258;59.424;13.482;2023-12-07T14:06:36;2.35;;;1.50;;
46216;SDS011;47258;59.424;13.482;2023-12-07T14:09:03;1.77;;;1.23;;
46216;SDS011;47258;59.424;13.482;2023-12-07T14:11:30;3.92;;;2.03;;
46216;SDS011;47258;59.424;13.482;2023-12-07T14:13:56;1.95;;;1.77;;
46216;SDS011;47258;59.424;13.482;2023-12-07T14:16:23;3.17;;;1.83;;
46216;SDS011;47258;59.424;13.482;2023-12-07T14:18:52;2.38;;;1.50;;
46216;SDS011;47258;59.424;13.482;2023-12-07T14:21:19;2.28;;;2.08;;
46216;SDS011;47258;59.424;13.482;2023-12-07T14:23:47;3.73;;;2.03;;
46216;SDS011;47258;59.424;13.482;2023-12-07T14:26:14;1.50;;;1.40;;
46216;SDS011;47258;59.424;13.482;2023-12-07T14:28:41;2.33;;;1.83;;
46216;SDS011;47258;59.424;13.482;2023-12-07T14:31:08;7.43;;;4.70;;
46216;SDS011;47258;59.424;13.482;2023-12-07T14:33:41;6.57;;;3.72;;
46216;SDS011;47258;59.424;13.482;2023-12-07T14:36:11;3.95;;;2.17;;
46216;SDS011;47258;59.424;13.482;2023-12-07T14:41:06;1.60;;;1.50;;
46216;SDS011;47258;59.424;13.482;2023-12-07T14:43:33;2.05;;;1.30;;
46216;SDS011;47258;59.424;13.482;2023-12-07T14:46:00;1.90;;;1.60;;
46216;SDS011;47258;59.424;13.482;2023-12-07T14:48:28;3.55;;;1.60;;
46216;SDS011;47258;59.424;13.482;2023-12-07T14:50:55;1.75;;;1.52;;
46216;SDS011;47258;59.424;13.482;2023-12-07T14:53:23;2.97;;;2.28;;